sensor_id;sensor_type;location;lat;lon;timestamp;P1;durP1;ratioP1;P2;durP2;ratioP2
36971;SDS011;40554;52.122;20.678;2022-11-03T00:01:35;15.35;;;3.65;;
36971;SDS011;40554;52.122;20.678;2022-11-03T00:03:53;12.18;;;4.15;;
36971;SDS011;40554;52.122;20.678;2022-11-03T00:06:10;10.15;;;3.92;;
36971;SDS011;40554;52.122;20.678;2022-11-03T00:08:26;14.33;;;3.80;;
36971;SDS011;40554;52.122;20.678;2022-11-03T00:10:42;10.30;;;3.62;;
36971;SDS011;40554;52.122;20.678;2022-11-03T00:12:59;12.03;;;3.50;;
36971;SDS011;40554;52.122;20.678;2022-11-03T00:15:15;11.78;;;3.85;;
36971;SDS011;40554;52.122;20.678;2022-11-03T00:17:31;10.85;;;3.70;;
36971;SDS011;40554;52.122;20.678;2022-11-03T00:19:47;6.28;;;3.12;;
36971;SDS011;40554;52.122;20.678;2022-11-03T00:22:04;10.98;;;3.83;;
36971;SDS011;40554;52.122;20.678;2022-11-03T00:24:20;8.73;;;3.22;;
36971;SDS011;40554;52.122;20.678;2022-11-03T00:26:36;12.50;;;3.22;;
36971;SDS011;40554;52.122;20.678;2022-11-03T00:28:55;9.88;;;3.62;;
36971;SDS011;40554;52.122;20.678;2022-11-03T00:31:18;12.28;;;4.30;;
36971;SDS011;40554;52.122;20.678;2022-11-03T00:33:41;8.18;;;4.10;;
36971;SDS011;40554;52.122;20.678;2022-11-03T00:36:01;12.45;;;4.35;;
36971;SDS011;40554;52.122;20.678;2022-11-03T00:38:19;9.45;;;4.37;;
36971;SDS011;40554;52.122;20.678;2022-11-03T00:40:35;7.47;;;4.12;;
36971;SDS011;40554;52.122;20.678;2022-11-03T00:42:51;10.95;;;4.17;;
36971;SDS011;40554;52.122;20.678;2022-11-03T00:45:08;10.32;;;4.85;;
36971;SDS011;40554;52.122;20.678;2022-11-03T00:47:25;10.93;;;4.30;;
36971;SDS011;40554;52.122;20.678;2022-11-03T00:49:41;13.65;;;4.67;;
36971;SDS011;40554;52.122;20.678;2022-11-03T00:51:57;10.30;;;4.70;;
36971;SDS011;40554;52.122;20.678;2022-11-03T00:54:16;10.48;;;4.55;;
36971;SDS011;40554;52.122;20.678;2022-11-03T00:56:33;10.03;;;4.50;;
36971;SDS011;40554;52.122;20.678;2022-11-03T00:58:52;11.18;;;4.90;;
36971;SDS011;40554;52.122;20.678;2022-11-03T01:01:11;17.27;;;5.40;;
36971;SDS011;40554;52.122;20.678;2022-11-03T01:03:33;8.90;;;5.00;;
36971;SDS011;40554;52.122;20.678;2022-11-03T01:05:52;15.40;;;5.90;;
36971;SDS011;40554;52.122;20.678;2022-11-03T01:08:33;17.75;;;6.10;;
36971;SDS011;40554;52.122;20.678;2022-11-03T01:10:51;13.45;;;5.37;;
36971;SDS011;40554;52.122;20.678;2022-11-03T01:13:25;15.50;;;6.72;;
36971;SDS011;40554;52.122;20.678;2022-11-03T01:15:42;16.55;;;6.55;;
36971;SDS011;40554;52.122;20.678;2022-11-03T01:17:58;17.32;;;6.42;;
36971;SDS011;40554;52.122;20.678;2022-11-03T01:20:14;20.12;;;7.67;;
36971;SDS011;40554;52.122;20.678;2022-11-03T01:22:31;16.57;;;7.00;;
36971;SDS011;40554;52.122;20.678;2022-11-03T01:24:47;16.27;;;7.20;;
36971;SDS011;40554;52.122;20.678;2022-11-03T01:27:06;18.02;;;7.12;;
36971;SDS011;40554;52.122;20.678;2022-11-03T01:29:24;14.73;;;7.50;;
36971;SDS011;40554;52.122;20.678;2022-11-03T01:31:40;19.02;;;7.55;;
36971;SDS011;40554;52.122;20.678;2022-11-03T01:33:56;14.43;;;8.08;;
36971;SDS011;40554;52.122;20.678;2022-11-03T01:36:13;16.65;;;8.35;;
36971;SDS011;40554;52.122;20.678;2022-11-03T01:38:30;15.83;;;7.65;;
36971;SDS011;40554;52.122;20.678;2022-11-03T01:40:49;18.32;;;8.85;;
36971;SDS011;40554;52.122;20.678;2022-11-03T01:43:20;16.37;;;9.40;;
36971;SDS011;40554;52.122;20.678;2022-11-03T01:45:34;19.65;;;8.83;;
36971;SDS011;40554;52.122;20.678;2022-11-03T01:47:51;16.70;;;7.95;;
36971;SDS011;40554;52.122;20.678;2022-11-03T01:50:12;19.27;;;7.87;;
36971;SDS011;40554;52.122;20.678;2022-11-03T01:52:33;21.10;;;9.73;;
36971;SDS011;40554;52.122;20.678;2022-11-03T01:54:57;17.48;;;9.68;;
36971;SDS011;40554;52.122;20.678;2022-11-03T01:57:19;15.73;;;7.57;;
36971;SDS011;40554;52.122;20.678;2022-11-03T01:59:39;22.67;;;8.70;;
36971;SDS011;40554;52.122;20.678;2022-11-03T02:01:58;16.97;;;8.33;;
36971;SDS011;40554;52.122;20.678;2022-11-03T02:04:28;18.75;;;9.70;;
36971;SDS011;40554;52.122;20.678;2022-11-03T02:06:48;18.12;;;7.53;;
36971;SDS011;40554;52.122;20.678;2022-11-03T02:09:08;15.37;;;6.77;;
36971;SDS011;40554;52.122;20.678;2022-11-03T02:11:26;17.90;;;7.92;;
36971;SDS011;40554;52.122;20.678;2022-11-03T02:14:02;17.37;;;7.33;;
36971;SDS011;40554;52.122;20.678;2022-11-03T02:16:19;16.30;;;7.30;;
36971;SDS011;40554;52.122;20.678;2022-11-03T02:18:38;15.63;;;8.00;;
36971;SDS011;40554;52.122;20.678;2022-11-03T02:20:57;23.47;;;8.15;;
36971;SDS011;40554;52.122;20.678;2022-11-03T02:23:42;19.15;;;7.72;;
36971;SDS011;40554;52.122;20.678;2022-11-03T02:26:04;18.12;;;7.83;;
36971;SDS011;40554;52.122;20.678;2022-11-03T02:28:25;20.45;;;7.45;;
36971;SDS011;40554;52.122;20.678;2022-11-03T02:38:33;17.32;;;7.12;;
36971;SDS011;40554;52.122;20.678;2022-11-03T02:40:54;17.70;;;6.83;;
36971;SDS011;40554;52.122;20.678;2022-11-03T02:43:15;18.40;;;7.17;;
36971;SDS011;40554;52.122;20.678;2022-11-03T02:45:33;17.98;;;6.70;;
36971;SDS011;40554;52.122;20.678;2022-11-03T02:47:50;14.73;;;5.90;;
36971;SDS011;40554;52.122;20.678;2022-11-03T02:50:10;16.70;;;7.40;;
36971;SDS011;40554;52.122;20.678;2022-11-03T02:52:35;14.38;;;6.67;;
36971;SDS011;40554;52.122;20.678;2022-11-03T02:54:55;14.43;;;6.12;;
36971;SDS011;40554;52.122;20.678;2022-11-03T02:57:17;14.23;;;6.45;;
36971;SDS011;40554;52.122;20.678;2022-11-03T02:59:37;11.90;;;6.83;;
36971;SDS011;40554;52.122;20.678;2022-11-03T03:02:08;15.30;;;7.08;;
36971;SDS011;40554;52.122;20.678;2022-11-03T03:04:39;16.65;;;7.45;;
36971;SDS011;40554;52.122;20.678;2022-11-03T03:06:56;14.50;;;6.90;;
36971;SDS011;40554;52.122;20.678;2022-11-03T03:09:26;14.65;;;6.42;;
36971;SDS011;40554;52.122;20.678;2022-11-03T03:11:46;19.00;;;8.00;;
36971;SDS011;40554;52.122;20.678;2022-11-03T03:14:23;14.78;;;6.60;;
36971;SDS011;40554;52.122;20.678;2022-11-03T03:22:20;15.85;;;6.37;;
36971;SDS011;40554;52.122;20.678;2022-11-03T03:24:47;15.00;;;6.85;;
36971;SDS011;40554;52.122;20.678;2022-11-03T03:27:14;17.62;;;7.05;;
36971;SDS011;40554;52.122;20.678;2022-11-03T03:29:42;15.68;;;7.03;;
36971;SDS011;40554;52.122;20.678;2022-11-03T03:32:05;13.43;;;7.10;;
36971;SDS011;40554;52.122;20.678;2022-11-03T03:34:25;12.70;;;7.10;;
36971;SDS011;40554;52.122;20.678;2022-11-03T03:36:43;14.73;;;6.00;;
36971;SDS011;40554;52.122;20.678;2022-11-03T03:39:03;17.65;;;6.85;;
36971;SDS011;40554;52.122;20.678;2022-11-03T03:41:23;15.55;;;6.80;;
36971;SDS011;40554;52.122;20.678;2022-11-03T03:43:42;13.30;;;6.40;;
36971;SDS011;40554;52.122;20.678;2022-11-03T03:46:00;17.42;;;7.22;;
36971;SDS011;40554;52.122;20.678;2022-11-03T03:48:22;14.70;;;6.55;;
36971;SDS011;40554;52.122;20.678;2022-11-03T03:50:39;19.90;;;7.58;;
36971;SDS011;40554;52.122;20.678;2022-11-03T03:52:59;16.05;;;7.37;;
36971;SDS011;40554;52.122;20.678;2022-11-03T03:55:17;17.77;;;6.17;;
36971;SDS011;40554;52.122;20.678;2022-11-03T03:57:37;16.25;;;7.53;;
36971;SDS011;40554;52.122;20.678;2022-11-03T03:59:53;10.88;;;5.60;;
36971;SDS011;40554;52.122;20.678;2022-11-03T04:02:10;13.75;;;6.72;;
36971;SDS011;40554;52.122;20.678;2022-11-03T04:04:27;17.70;;;7.40;;
36971;SDS011;40554;52.122;20.678;2022-11-03T04:06:43;12.73;;;6.28;;
36971;SDS011;40554;52.122;20.678;2022-11-03T04:09:00;14.33;;;6.28;;
36971;SDS011;40554;52.122;20.678;2022-11-03T04:11:16;17.87;;;7.12;;
36971;SDS011;40554;52.122;20.678;2022-11-03T04:13:50;14.87;;;6.92;;
36971;SDS011;40554;52.122;20.678;2022-11-03T04:16:25;17.32;;;7.12;;
36971;SDS011;40554;52.122;20.678;2022-11-03T04:18:59;14.20;;;6.53;;
36971;SDS011;40554;52.122;20.678;2022-11-03T04:21:35;13.62;;;6.78;;
36971;SDS011;40554;52.122;20.678;2022-11-03T04:24:09;15.43;;;6.70;;
36971;SDS011;40554;52.122;20.678;2022-11-03T04:30:57;15.95;;;6.60;;
36971;SDS011;40554;52.122;20.678;2022-11-03T04:33:15;11.97;;;6.33;;
36971;SDS011;40554;52.122;20.678;2022-11-03T04:35:36;12.73;;;6.47;;
36971;SDS011;40554;52.122;20.678;2022-11-03T04:37:53;14.45;;;6.75;;
36971;SDS011;40554;52.122;20.678;2022-11-03T04:40:15;13.13;;;6.15;;
36971;SDS011;40554;52.122;20.678;2022-11-03T04:42:32;16.62;;;6.95;;
36971;SDS011;40554;52.122;20.678;2022-11-03T04:44:50;15.88;;;6.40;;
36971;SDS011;40554;52.122;20.678;2022-11-03T04:47:08;14.18;;;6.40;;
36971;SDS011;40554;52.122;20.678;2022-11-03T04:49:27;17.12;;;7.05;;
36971;SDS011;40554;52.122;20.678;2022-11-03T04:51:43;12.68;;;7.22;;
36971;SDS011;40554;52.122;20.678;2022-11-03T04:54:04;11.48;;;6.53;;
36971;SDS011;40554;52.122;20.678;2022-11-03T04:56:38;16.07;;;7.03;;
36971;SDS011;40554;52.122;20.678;2022-11-03T04:58:56;15.25;;;6.78;;
36971;SDS011;40554;52.122;20.678;2022-11-03T05:01:14;18.23;;;7.22;;
36971;SDS011;40554;52.122;20.678;2022-11-03T05:03:34;12.55;;;6.42;;
36971;SDS011;40554;52.122;20.678;2022-11-03T05:05:52;14.65;;;8.13;;
36971;SDS011;40554;52.122;20.678;2022-11-03T05:08:08;12.25;;;6.90;;
36971;SDS011;40554;52.122;20.678;2022-11-03T05:10:27;12.63;;;6.47;;
36971;SDS011;40554;52.122;20.678;2022-11-03T05:12:44;15.05;;;6.35;;
36971;SDS011;40554;52.122;20.678;2022-11-03T05:15:03;12.18;;;6.22;;
36971;SDS011;40554;52.122;20.678;2022-11-03T05:17:25;15.30;;;7.20;;
36971;SDS011;40554;52.122;20.678;2022-11-03T05:19:43;14.30;;;6.50;;
36971;SDS011;40554;52.122;20.678;2022-11-03T05:21:59;16.62;;;6.50;;
36971;SDS011;40554;52.122;20.678;2022-11-03T05:24:18;14.80;;;7.05;;
36971;SDS011;40554;52.122;20.678;2022-11-03T05:26:38;16.05;;;7.05;;
36971;SDS011;40554;52.122;20.678;2022-11-03T05:28:57;13.48;;;6.40;;
36971;SDS011;40554;52.122;20.678;2022-11-03T05:31:29;13.75;;;7.55;;
36971;SDS011;40554;52.122;20.678;2022-11-03T05:33:49;14.93;;;7.37;;
36971;SDS011;40554;52.122;20.678;2022-11-03T05:36:15;15.85;;;7.08;;
36971;SDS011;40554;52.122;20.678;2022-11-03T05:38:37;16.45;;;7.20;;
36971;SDS011;40554;52.122;20.678;2022-11-03T05:40:53;18.12;;;7.70;;
36971;SDS011;40554;52.122;20.678;2022-11-03T05:43:10;17.35;;;9.45;;
36971;SDS011;40554;52.122;20.678;2022-11-03T05:45:33;17.32;;;7.58;;
36971;SDS011;40554;52.122;20.678;2022-11-03T05:47:52;20.17;;;8.23;;
36971;SDS011;40554;52.122;20.678;2022-11-03T05:50:15;15.93;;;7.83;;
36971;SDS011;40554;52.122;20.678;2022-11-03T05:52:36;12.98;;;7.45;;
36971;SDS011;40554;52.122;20.678;2022-11-03T05:54:53;21.40;;;7.87;;
36971;SDS011;40554;52.122;20.678;2022-11-03T05:57:13;15.15;;;8.25;;
36971;SDS011;40554;52.122;20.678;2022-11-03T05:59:32;18.98;;;8.53;;
36971;SDS011;40554;52.122;20.678;2022-11-03T06:01:49;16.10;;;8.30;;
36971;SDS011;40554;52.122;20.678;2022-11-03T06:06:51;16.50;;;8.63;;
36971;SDS011;40554;52.122;20.678;2022-11-03T06:09:18;17.17;;;8.95;;
36971;SDS011;40554;52.122;20.678;2022-11-03T06:11:37;18.45;;;9.88;;
36971;SDS011;40554;52.122;20.678;2022-11-03T06:13:55;19.98;;;10.32;;
36971;SDS011;40554;52.122;20.678;2022-11-03T06:18:55;21.70;;;10.15;;
36971;SDS011;40554;52.122;20.678;2022-11-03T06:21:21;27.70;;;11.60;;
36971;SDS011;40554;52.122;20.678;2022-11-03T06:23:41;18.07;;;10.48;;
36971;SDS011;40554;52.122;20.678;2022-11-03T06:25:58;25.30;;;9.90;;
36971;SDS011;40554;52.122;20.678;2022-11-03T06:28:18;19.87;;;10.25;;
36971;SDS011;40554;52.122;20.678;2022-11-03T06:30:39;20.57;;;11.10;;
36971;SDS011;40554;52.122;20.678;2022-11-03T06:32:57;15.48;;;9.58;;
36971;SDS011;40554;52.122;20.678;2022-11-03T06:35:18;18.40;;;9.60;;
36971;SDS011;40554;52.122;20.678;2022-11-03T06:37:34;22.52;;;10.10;;
36971;SDS011;40554;52.122;20.678;2022-11-03T06:39:56;22.45;;;9.93;;
36971;SDS011;40554;52.122;20.678;2022-11-03T06:42:18;17.20;;;9.58;;
36971;SDS011;40554;52.122;20.678;2022-11-03T06:44:36;19.42;;;10.82;;
36971;SDS011;40554;52.122;20.678;2022-11-03T06:47:00;22.40;;;10.82;;
36971;SDS011;40554;52.122;20.678;2022-11-03T06:49:35;17.10;;;9.15;;
36971;SDS011;40554;52.122;20.678;2022-11-03T06:51:49;19.00;;;10.58;;
36971;SDS011;40554;52.122;20.678;2022-11-03T06:54:07;20.20;;;10.15;;
36971;SDS011;40554;52.122;20.678;2022-11-03T06:56:30;17.48;;;9.40;;
36971;SDS011;40554;52.122;20.678;2022-11-03T06:58:50;16.17;;;9.20;;
36971;SDS011;40554;52.122;20.678;2022-11-03T07:01:17;19.37;;;10.08;;
36971;SDS011;40554;52.122;20.678;2022-11-03T07:03:34;22.35;;;9.33;;
36971;SDS011;40554;52.122;20.678;2022-11-03T07:05:55;18.65;;;9.48;;
36971;SDS011;40554;52.122;20.678;2022-11-03T07:08:22;18.50;;;9.30;;
36971;SDS011;40554;52.122;20.678;2022-11-03T07:10:45;20.10;;;9.80;;
36971;SDS011;40554;52.122;20.678;2022-11-03T07:13:05;22.10;;;10.23;;
36971;SDS011;40554;52.122;20.678;2022-11-03T07:15:34;18.82;;;9.08;;
36971;SDS011;40554;52.122;20.678;2022-11-03T07:17:52;20.40;;;9.05;;
36971;SDS011;40554;52.122;20.678;2022-11-03T07:20:13;24.85;;;9.55;;
36971;SDS011;40554;52.122;20.678;2022-11-03T07:22:31;17.17;;;8.70;;
36971;SDS011;40554;52.122;20.678;2022-11-03T07:24:49;16.37;;;8.00;;
36971;SDS011;40554;52.122;20.678;2022-11-03T07:29:56;16.80;;;8.88;;
36971;SDS011;40554;52.122;20.678;2022-11-03T07:32:18;15.35;;;8.13;;
36971;SDS011;40554;52.122;20.678;2022-11-03T07:34:37;16.02;;;8.28;;
36971;SDS011;40554;52.122;20.678;2022-11-03T07:36:54;14.38;;;8.00;;
36971;SDS011;40554;52.122;20.678;2022-11-03T07:39:12;20.20;;;7.60;;
36971;SDS011;40554;52.122;20.678;2022-11-03T07:41:32;16.02;;;7.28;;
36971;SDS011;40554;52.122;20.678;2022-11-03T07:43:52;12.70;;;7.45;;
36971;SDS011;40554;52.122;20.678;2022-11-03T07:46:15;16.57;;;8.13;;
36971;SDS011;40554;52.122;20.678;2022-11-03T07:50:59;17.60;;;6.67;;
36971;SDS011;40554;52.122;20.678;2022-11-03T07:56:12;15.18;;;8.05;;
36971;SDS011;40554;52.122;20.678;2022-11-03T07:58:37;14.85;;;7.20;;
36971;SDS011;40554;52.122;20.678;2022-11-03T08:00:55;15.68;;;6.80;;
36971;SDS011;40554;52.122;20.678;2022-11-03T08:03:24;12.35;;;6.60;;
36971;SDS011;40554;52.122;20.678;2022-11-03T08:05:52;13.53;;;6.30;;
36971;SDS011;40554;52.122;20.678;2022-11-03T08:08:08;18.07;;;6.28;;
36971;SDS011;40554;52.122;20.678;2022-11-03T08:10:25;15.23;;;6.37;;
36971;SDS011;40554;52.122;20.678;2022-11-03T08:12:41;13.43;;;6.22;;
36971;SDS011;40554;52.122;20.678;2022-11-03T08:14:57;15.63;;;5.33;;
36971;SDS011;40554;52.122;20.678;2022-11-03T08:17:14;16.15;;;6.33;;
36971;SDS011;40554;52.122;20.678;2022-11-03T08:19:30;11.60;;;5.87;;
36971;SDS011;40554;52.122;20.678;2022-11-03T08:21:47;16.32;;;5.97;;
36971;SDS011;40554;52.122;20.678;2022-11-03T08:24:03;33.80;;;6.28;;
36971;SDS011;40554;52.122;20.678;2022-11-03T08:26:21;17.80;;;5.60;;
36971;SDS011;40554;52.122;20.678;2022-11-03T08:28:37;16.12;;;5.15;;
36971;SDS011;40554;52.122;20.678;2022-11-03T08:30:53;9.35;;;4.22;;
36971;SDS011;40554;52.122;20.678;2022-11-03T08:33:11;11.25;;;5.28;;
36971;SDS011;40554;52.122;20.678;2022-11-03T08:35:28;9.03;;;5.17;;
36971;SDS011;40554;52.122;20.678;2022-11-03T08:37:44;12.65;;;5.53;;
36971;SDS011;40554;52.122;20.678;2022-11-03T08:40:00;9.80;;;4.78;;
36971;SDS011;40554;52.122;20.678;2022-11-03T08:42:18;13.38;;;5.35;;
36971;SDS011;40554;52.122;20.678;2022-11-03T08:44:34;10.60;;;4.60;;
36971;SDS011;40554;52.122;20.678;2022-11-03T08:46:50;14.98;;;4.60;;
36971;SDS011;40554;52.122;20.678;2022-11-03T08:49:06;10.23;;;4.55;;
36971;SDS011;40554;52.122;20.678;2022-11-03T08:51:23;8.55;;;4.20;;
36971;SDS011;40554;52.122;20.678;2022-11-03T08:53:39;10.23;;;3.75;;
36971;SDS011;40554;52.122;20.678;2022-11-03T08:56:00;7.95;;;3.83;;
36971;SDS011;40554;52.122;20.678;2022-11-03T08:58:16;7.72;;;3.30;;
36971;SDS011;40554;52.122;20.678;2022-11-03T09:00:32;10.45;;;4.17;;
36971;SDS011;40554;52.122;20.678;2022-11-03T09:02:50;10.78;;;3.67;;
36971;SDS011;40554;52.122;20.678;2022-11-03T09:05:06;13.38;;;4.12;;
36971;SDS011;40554;52.122;20.678;2022-11-03T09:07:23;14.00;;;4.05;;
36971;SDS011;40554;52.122;20.678;2022-11-03T09:09:40;7.87;;;3.85;;
36971;SDS011;40554;52.122;20.678;2022-11-03T09:11:56;10.85;;;4.03;;
36971;SDS011;40554;52.122;20.678;2022-11-03T09:14:12;10.70;;;4.72;;
36971;SDS011;40554;52.122;20.678;2022-11-03T09:16:29;8.33;;;4.37;;
36971;SDS011;40554;52.122;20.678;2022-11-03T09:18:45;11.80;;;4.45;;
36971;SDS011;40554;52.122;20.678;2022-11-03T09:21:01;11.12;;;4.70;;
36971;SDS011;40554;52.122;20.678;2022-11-03T09:23:18;11.40;;;4.10;;
36971;SDS011;40554;52.122;20.678;2022-11-03T09:25:34;10.60;;;4.10;;
36971;SDS011;40554;52.122;20.678;2022-11-03T09:27:50;10.95;;;4.53;;
36971;SDS011;40554;52.122;20.678;2022-11-03T09:30:07;7.50;;;3.52;;
36971;SDS011;40554;52.122;20.678;2022-11-03T09:32:24;11.75;;;4.20;;
36971;SDS011;40554;52.122;20.678;2022-11-03T09:34:40;11.22;;;4.03;;
36971;SDS011;40554;52.122;20.678;2022-11-03T09:36:56;7.08;;;3.00;;
36971;SDS011;40554;52.122;20.678;2022-11-03T09:39:13;7.90;;;3.75;;
36971;SDS011;40554;52.122;20.678;2022-11-03T09:41:29;7.45;;;2.90;;
36971;SDS011;40554;52.122;20.678;2022-11-03T09:43:47;13.72;;;3.00;;
36971;SDS011;40554;52.122;20.678;2022-11-03T09:46:04;8.83;;;3.70;;
36971;SDS011;40554;52.122;20.678;2022-11-03T09:48:20;10.45;;;3.05;;
36971;SDS011;40554;52.122;20.678;2022-11-03T09:50:36;10.25;;;2.75;;
36971;SDS011;40554;52.122;20.678;2022-11-03T09:52:54;10.08;;;2.85;;
36971;SDS011;40554;52.122;20.678;2022-11-03T09:55:12;11.10;;;3.00;;
36971;SDS011;40554;52.122;20.678;2022-11-03T09:57:36;10.72;;;2.45;;
36971;SDS011;40554;52.122;20.678;2022-11-03T09:59:52;8.00;;;2.45;;
36971;SDS011;40554;52.122;20.678;2022-11-03T10:04:40;11.88;;;2.47;;
36971;SDS011;40554;52.122;20.678;2022-11-03T10:06:56;9.05;;;2.85;;
36971;SDS011;40554;52.122;20.678;2022-11-03T10:09:14;9.00;;;2.45;;
36971;SDS011;40554;52.122;20.678;2022-11-03T10:11:37;8.93;;;2.72;;
36971;SDS011;40554;52.122;20.678;2022-11-03T10:13:53;9.65;;;2.55;;
36971;SDS011;40554;52.122;20.678;2022-11-03T10:16:14;8.08;;;2.67;;
36971;SDS011;40554;52.122;20.678;2022-11-03T10:18:36;4.80;;;1.95;;
36971;SDS011;40554;52.122;20.678;2022-11-03T10:20:53;10.05;;;2.50;;
36971;SDS011;40554;52.122;20.678;2022-11-03T10:23:09;14.80;;;2.17;;
36971;SDS011;40554;52.122;20.678;2022-11-03T10:33:03;7.33;;;1.82;;
36971;SDS011;40554;52.122;20.678;2022-11-03T10:35:31;5.53;;;1.65;;
36971;SDS011;40554;52.122;20.678;2022-11-03T10:37:50;8.33;;;1.75;;
36971;SDS011;40554;52.122;20.678;2022-11-03T10:40:09;9.73;;;1.90;;
36971;SDS011;40554;52.122;20.678;2022-11-03T10:42:28;5.65;;;1.70;;
36971;SDS011;40554;52.122;20.678;2022-11-03T10:44:45;8.43;;;1.50;;
36971;SDS011;40554;52.122;20.678;2022-11-03T10:47:03;5.70;;;2.10;;
36971;SDS011;40554;52.122;20.678;2022-11-03T10:49:23;6.42;;;1.80;;
36971;SDS011;40554;52.122;20.678;2022-11-03T10:51:40;9.40;;;1.40;;
36971;SDS011;40554;52.122;20.678;2022-11-03T10:53:58;7.03;;;1.80;;
36971;SDS011;40554;52.122;20.678;2022-11-03T10:56:14;9.43;;;2.67;;
36971;SDS011;40554;52.122;20.678;2022-11-03T10:58:30;8.88;;;1.72;;
36971;SDS011;40554;52.122;20.678;2022-11-03T11:00:48;11.83;;;1.70;;
36971;SDS011;40554;52.122;20.678;2022-11-03T11:03:05;6.42;;;1.62;;
36971;SDS011;40554;52.122;20.678;2022-11-03T11:05:21;6.00;;;1.50;;
36971;SDS011;40554;52.122;20.678;2022-11-03T11:07:39;6.83;;;1.70;;
36971;SDS011;40554;52.122;20.678;2022-11-03T11:10:03;6.87;;;1.82;;
36971;SDS011;40554;52.122;20.678;2022-11-03T11:12:28;8.40;;;1.52;;
36971;SDS011;40554;52.122;20.678;2022-11-03T11:14:58;7.25;;;1.42;;
36971;SDS011;40554;52.122;20.678;2022-11-03T11:22:50;9.08;;;1.52;;
36971;SDS011;40554;52.122;20.678;2022-11-03T11:25:06;6.97;;;1.75;;
36971;SDS011;40554;52.122;20.678;2022-11-03T11:30:00;6.17;;;1.32;;
36971;SDS011;40554;52.122;20.678;2022-11-03T11:35:02;5.78;;;1.30;;
36971;SDS011;40554;52.122;20.678;2022-11-03T11:39:44;8.90;;;1.77;;
36971;SDS011;40554;52.122;20.678;2022-11-03T11:45:09;7.83;;;1.67;;
36971;SDS011;40554;52.122;20.678;2022-11-03T11:47:01;8.83;;;1.55;;
36971;SDS011;40554;52.122;20.678;2022-11-03T11:49:17;7.47;;;1.70;;
36971;SDS011;40554;52.122;20.678;2022-11-03T11:51:34;5.78;;;1.85;;
36971;SDS011;40554;52.122;20.678;2022-11-03T11:53:53;6.72;;;1.70;;
36971;SDS011;40554;52.122;20.678;2022-11-03T11:56:13;4.08;;;1.35;;
36971;SDS011;40554;52.122;20.678;2022-11-03T11:58:49;7.15;;;1.80;;
36971;SDS011;40554;52.122;20.678;2022-11-03T12:01:04;7.00;;;1.70;;
36971;SDS011;40554;52.122;20.678;2022-11-03T12:03:42;9.78;;;2.25;;
36971;SDS011;40554;52.122;20.678;2022-11-03T12:05:59;11.22;;;2.47;;
36971;SDS011;40554;52.122;20.678;2022-11-03T12:08:19;11.10;;;2.95;;
36971;SDS011;40554;52.122;20.678;2022-11-03T12:10:52;11.68;;;2.58;;
36971;SDS011;40554;52.122;20.678;2022-11-03T12:13:33;6.97;;;1.45;;
36971;SDS011;40554;52.122;20.678;2022-11-03T12:15:55;8.05;;;1.55;;
36971;SDS011;40554;52.122;20.678;2022-11-03T12:20:52;8.60;;;2.85;;
36971;SDS011;40554;52.122;20.678;2022-11-03T12:23:09;5.85;;;1.60;;
36971;SDS011;40554;52.122;20.678;2022-11-03T12:25:33;8.48;;;2.10;;
36971;SDS011;40554;52.122;20.678;2022-11-03T12:27:51;6.58;;;1.60;;
36971;SDS011;40554;52.122;20.678;2022-11-03T12:30:11;5.80;;;1.72;;
36971;SDS011;40554;52.122;20.678;2022-11-03T12:32:30;9.63;;;2.50;;
36971;SDS011;40554;52.122;20.678;2022-11-03T12:34:47;5.05;;;1.35;;
36971;SDS011;40554;52.122;20.678;2022-11-03T12:37:03;8.58;;;2.22;;
36971;SDS011;40554;52.122;20.678;2022-11-03T12:39:19;6.22;;;1.50;;
36971;SDS011;40554;52.122;20.678;2022-11-03T12:41:36;5.90;;;1.50;;
36971;SDS011;40554;52.122;20.678;2022-11-03T12:43:52;4.50;;;1.70;;
36971;SDS011;40554;52.122;20.678;2022-11-03T12:46:10;6.45;;;1.60;;
36971;SDS011;40554;52.122;20.678;2022-11-03T12:48:26;8.98;;;1.40;;
36971;SDS011;40554;52.122;20.678;2022-11-03T12:50:43;8.28;;;1.80;;
36971;SDS011;40554;52.122;20.678;2022-11-03T12:52:59;8.13;;;2.10;;
36971;SDS011;40554;52.122;20.678;2022-11-03T12:55:15;8.98;;;2.27;;
36971;SDS011;40554;52.122;20.678;2022-11-03T12:57:31;9.05;;;1.50;;
36971;SDS011;40554;52.122;20.678;2022-11-03T12:59:48;4.45;;;1.70;;
36971;SDS011;40554;52.122;20.678;2022-11-03T13:02:06;6.67;;;1.52;;
36971;SDS011;40554;52.122;20.678;2022-11-03T13:04:24;11.48;;;2.05;;
36971;SDS011;40554;52.122;20.678;2022-11-03T13:06:41;7.47;;;1.45;;
36971;SDS011;40554;52.122;20.678;2022-11-03T13:08:57;8.38;;;1.65;;
36971;SDS011;40554;52.122;20.678;2022-11-03T13:11:14;7.58;;;2.52;;
36971;SDS011;40554;52.122;20.678;2022-11-03T13:13:49;6.25;;;1.12;;
36971;SDS011;40554;52.122;20.678;2022-11-03T13:16:05;5.40;;;1.57;;
36971;SDS011;40554;52.122;20.678;2022-11-03T13:18:22;7.60;;;1.80;;
36971;SDS011;40554;52.122;20.678;2022-11-03T13:20:38;5.10;;;1.62;;
36971;SDS011;40554;52.122;20.678;2022-11-03T13:22:55;5.45;;;1.87;;
36971;SDS011;40554;52.122;20.678;2022-11-03T13:25:11;10.28;;;1.95;;
36971;SDS011;40554;52.122;20.678;2022-11-03T13:27:27;8.08;;;1.82;;
36971;SDS011;40554;52.122;20.678;2022-11-03T13:29:44;7.97;;;2.00;;
36971;SDS011;40554;52.122;20.678;2022-11-03T13:32:00;5.97;;;1.65;;
36971;SDS011;40554;52.122;20.678;2022-11-03T13:34:17;5.65;;;1.80;;
36971;SDS011;40554;52.122;20.678;2022-11-03T13:36:34;8.60;;;2.25;;
36971;SDS011;40554;52.122;20.678;2022-11-03T13:38:50;7.37;;;1.98;;
36971;SDS011;40554;52.122;20.678;2022-11-03T13:41:06;9.23;;;2.15;;
36971;SDS011;40554;52.122;20.678;2022-11-03T13:43:23;7.55;;;2.52;;
36971;SDS011;40554;52.122;20.678;2022-11-03T13:45:39;7.92;;;2.58;;
36971;SDS011;40554;52.122;20.678;2022-11-03T13:47:55;7.60;;;3.92;;
36971;SDS011;40554;52.122;20.678;2022-11-03T13:50:12;7.35;;;2.27;;
36971;SDS011;40554;52.122;20.678;2022-11-03T13:52:28;12.45;;;2.20;;
36971;SDS011;40554;52.122;20.678;2022-11-03T13:54:44;4.65;;;1.60;;
36971;SDS011;40554;52.122;20.678;2022-11-03T13:57:01;15.75;;;2.17;;
36971;SDS011;40554;52.122;20.678;2022-11-03T13:59:17;8.63;;;2.33;;
36971;SDS011;40554;52.122;20.678;2022-11-03T14:01:34;5.72;;;2.08;;
36971;SDS011;40554;52.122;20.678;2022-11-03T14:03:50;12.15;;;3.60;;
36971;SDS011;40554;52.122;20.678;2022-11-03T14:06:08;11.50;;;2.47;;
36971;SDS011;40554;52.122;20.678;2022-11-03T14:08:24;10.10;;;2.40;;
36971;SDS011;40554;52.122;20.678;2022-11-03T14:10:40;5.33;;;2.20;;
36971;SDS011;40554;52.122;20.678;2022-11-03T14:12:56;10.43;;;2.33;;
36971;SDS011;40554;52.122;20.678;2022-11-03T14:15:13;8.70;;;2.45;;
36971;SDS011;40554;52.122;20.678;2022-11-03T14:17:29;11.18;;;2.15;;
36971;SDS011;40554;52.122;20.678;2022-11-03T14:19:46;8.55;;;2.15;;
36971;SDS011;40554;52.122;20.678;2022-11-03T14:22:02;21.73;;;2.90;;
36971;SDS011;40554;52.122;20.678;2022-11-03T14:24:18;10.63;;;2.42;;
36971;SDS011;40554;52.122;20.678;2022-11-03T14:26:35;9.03;;;2.62;;
36971;SDS011;40554;52.122;20.678;2022-11-03T14:28:51;13.22;;;2.60;;
36971;SDS011;40554;52.122;20.678;2022-11-03T14:31:08;11.40;;;2.58;;
36971;SDS011;40554;52.122;20.678;2022-11-03T14:33:24;5.92;;;2.25;;
36971;SDS011;40554;52.122;20.678;2022-11-03T14:35:41;11.00;;;2.50;;
36971;SDS011;40554;52.122;20.678;2022-11-03T14:37:57;9.00;;;2.50;;
36971;SDS011;40554;52.122;20.678;2022-11-03T14:40:13;8.20;;;2.08;;